createdAt,value
2023-01-30T00:01:04.033Z,19.98
2023-01-30T00:03:44.210Z,19.42
2023-01-30T00:06:37.350Z,19.27
2023-01-30T00:15:55.813Z,19.27
2023-01-30T00:18:42.639Z,18.27
2023-01-30T00:21:25.039Z,18.30
2023-01-30T00:24:02.421Z,18.58
2023-01-30T00:26:49.375Z,16.38
2023-01-30T00:29:27.964Z,17.23
2023-01-30T00:31:57.264Z,18.70
2023-01-30T00:34:24.140Z,18.10
2023-01-30T00:39:56.530Z,18.65
2023-01-30T00:42:57.036Z,17.58
2023-01-30T00:45:47.058Z,18.00
2023-01-30T00:48:23.853Z,17.35
2023-01-30T00:50:53.429Z,17.98
2023-01-30T00:53:33.098Z,18.17
2023-01-30T00:56:19.868Z,17.73
2023-01-30T00:58:51.068Z,17.05
2023-01-30T01:01:24.503Z,15.65
2023-01-30T01:03:54.754Z,18.02
2023-01-30T01:06:22.615Z,17.05
2023-01-30T01:08:53.976Z,17.42
2023-01-30T01:11:29.452Z,16.88
2023-01-30T01:13:58.817Z,17.60
2023-01-30T01:16:26.917Z,15.95
2023-01-30T01:19:07.931Z,15.88
2023-01-30T01:21:34.637Z,16.80
2023-01-30T01:24:07.795Z,16.60
2023-01-30T01:26:41.945Z,17.70
2023-01-30T01:29:13.205Z,14.88
2023-01-30T01:31:42.684Z,14.75
2023-01-30T01:34:10.011Z,17.25
2023-01-30T01:36:52.689Z,14.95
2023-01-30T01:39:48.795Z,16.30
2023-01-30T01:42:20.180Z,16.35
2023-01-30T01:45:21.748Z,16.30
2023-01-30T01:48:00.553Z,15.65
2023-01-30T01:50:53.986Z,15.98
2023-01-30T01:53:30.314Z,15.68
2023-01-30T01:56:06.919Z,16.27
2023-01-30T01:58:43.547Z,15.45
2023-01-30T02:01:10.398Z,15.90
2023-01-30T02:03:49.540Z,15.45
2023-01-30T02:06:18.457Z,16.30
2023-01-30T02:08:54.147Z,15.20
2023-01-30T02:11:37.659Z,15.95
2023-01-30T02:14:13.751Z,15.88
2023-01-30T02:16:40.667Z,14.95
2023-01-30T02:19:35.220Z,13.40
2023-01-30T02:22:36.841Z,16.65
2023-01-30T02:25:43.707Z,15.40
2023-01-30T02:28:47.015Z,15.48
2023-01-30T02:31:26.433Z,16.00
2023-01-30T02:34:35.033Z,16.33
2023-01-30T02:37:16.379Z,14.82
2023-01-30T02:39:55.552Z,16.02
2023-01-30T02:42:46.074Z,15.80
2023-01-30T02:45:57.765Z,15.13
2023-01-30T02:48:47.143Z,15.52
2023-01-30T02:51:56.037Z,15.35
2023-01-30T02:54:25.453Z,15.38
2023-01-30T02:56:58.911Z,16.17
2023-01-30T02:59:41.574Z,16.52
2023-01-30T03:02:34.355Z,15.57
2023-01-30T03:05:19.843Z,15.93
2023-01-30T03:08:41.200Z,15.52
2023-01-30T03:11:11.857Z,15.73
2023-01-30T03:13:58.179Z,13.50
2023-01-30T03:16:36.867Z,15.57
2023-01-30T03:19:12.197Z,15.27
2023-01-30T03:21:45.969Z,14.93
2023-01-30T03:24:22.767Z,15.73
2023-01-30T03:27:33.455Z,13.93
2023-01-30T03:30:06.294Z,15.05
2023-01-30T03:32:36.527Z,15.15
2023-01-30T03:35:10.497Z,15.02
2023-01-30T03:37:47.300Z,15.23
2023-01-30T03:40:23.489Z,16.15
2023-01-30T03:43:00.670Z,15.98
2023-01-30T03:45:29.717Z,15.50
2023-01-30T03:48:06.952Z,15.02
2023-01-30T03:50:52.166Z,15.10
2023-01-30T03:53:38.657Z,14.93
2023-01-30T03:56:10.853Z,14.93
2023-01-30T03:58:53.724Z,15.40
2023-01-30T04:01:28.632Z,14.10
2023-01-30T04:04:02.114Z,14.30
2023-01-30T04:06:38.605Z,14.70
2023-01-30T04:12:02.683Z,13.35
2023-01-30T04:14:38.649Z,14.20
2023-01-30T04:17:32.195Z,14.57
2023-01-30T04:20:07.209Z,13.15
2023-01-30T04:22:51.755Z,13.73
2023-01-30T04:25:21.891Z,14.43
2023-01-30T04:27:48.823Z,13.32
2023-01-30T04:30:22.368Z,13.52
2023-01-30T04:33:12.231Z,14.07
2023-01-30T04:35:56.356Z,13.60
2023-01-30T04:38:24.132Z,13.65
2023-01-30T04:40:51.894Z,14.02
2023-01-30T04:43:27.910Z,14.20
2023-01-30T04:45:55.386Z,13.70
2023-01-30T04:48:25.006Z,14.02
2023-01-30T04:51:02.215Z,13.57
2023-01-30T04:53:36.663Z,13.55
2023-01-30T04:56:06.777Z,14.15
2023-01-30T04:58:44.587Z,13.60
2023-01-30T05:01:30.928Z,14.13
2023-01-30T05:04:05.956Z,11.70
2023-01-30T05:06:34.924Z,14.27
2023-01-30T05:09:14.912Z,13.55
2023-01-30T05:11:44.646Z,12.48
2023-01-30T05:14:13.899Z,12.48
2023-01-30T05:17:08.636Z,13.05
2023-01-30T05:19:37.491Z,12.13
2023-01-30T05:22:30.503Z,12.45
2023-01-30T05:27:29.544Z,11.20
2023-01-30T05:29:57.838Z,11.55
2023-01-30T05:32:32.565Z,11.27
2023-01-30T05:35:14.533Z,10.10
2023-01-30T05:37:44.368Z,9.98
2023-01-30T05:40:14.578Z,10.52
2023-01-30T05:42:44.431Z,9.63
2023-01-30T05:45:12.636Z,10.77
2023-01-30T05:47:40.450Z,10.45
2023-01-30T05:50:13.400Z,10.07
2023-01-30T05:52:42.738Z,9.18
2023-01-30T05:57:50.860Z,10.07
2023-01-30T06:00:24.870Z,10.27
2023-01-30T06:03:35.036Z,10.30
2023-01-30T06:06:14.938Z,9.88
2023-01-30T06:08:55.955Z,9.40
2023-01-30T06:11:30.466Z,10.13
2023-01-30T06:13:58.638Z,8.93
2023-01-30T06:16:35.622Z,8.32
2023-01-30T06:19:07.787Z,9.27
2023-01-30T06:24:43.902Z,8.50
2023-01-30T06:27:10.648Z,8.88
2023-01-30T06:29:47.022Z,10.02
2023-01-30T06:32:16.673Z,10.10
2023-01-30T06:34:44.074Z,9.80
2023-01-30T06:37:10.797Z,10.85
2023-01-30T06:39:42.794Z,10.32
2023-01-30T06:42:11.503Z,9.52
2023-01-30T06:44:46.179Z,10.48
2023-01-30T06:47:34.448Z,10.77
2023-01-30T06:50:01.160Z,10.68
2023-01-30T06:52:31.075Z,9.77
2023-01-30T06:55:04.004Z,10.05
2023-01-30T06:57:30.969Z,10.20
2023-01-30T07:00:03.634Z,10.27
2023-01-30T07:02:32.564Z,10.35
2023-01-30T07:05:02.737Z,9.80
2023-01-30T07:07:35.201Z,10.20
2023-01-30T07:10:09.457Z,10.80
2023-01-30T07:12:51.170Z,10.77
2023-01-30T07:15:40.345Z,10.38
2023-01-30T07:18:11.415Z,8.85
2023-01-30T07:20:39.182Z,10.48
2023-01-30T07:23:37.130Z,10.85
2023-01-30T07:26:16.523Z,9.52
2023-01-30T07:29:01.436Z,10.27
2023-01-30T07:31:33.586Z,10.60
2023-01-30T07:34:06.542Z,10.80
2023-01-30T07:36:40.644Z,10.38
2023-01-30T07:42:07.918Z,8.85
2023-01-30T07:44:37.605Z,11.45
2023-01-30T07:47:11.553Z,11.70
2023-01-30T07:49:49.678Z,11.32
2023-01-30T07:55:08.514Z,10.35
2023-01-30T07:57:39.567Z,10.48
2023-01-30T08:00:29.805Z,10.00
2023-01-30T08:03:18.506Z,9.60
2023-01-30T08:05:56.953Z,8.68
2023-01-30T08:08:23.620Z,10.25
2023-01-30T08:10:50.890Z,10.05
2023-01-30T08:13:17.779Z,10.02
2023-01-30T08:15:47.542Z,10.43
2023-01-30T08:18:24.163Z,11.15
2023-01-30T08:20:56.888Z,9.80
2023-01-30T08:23:36.033Z,10.85
2023-01-30T08:26:12.109Z,9.65
2023-01-30T08:28:47.176Z,9.50
2023-01-30T08:31:18.978Z,9.32
2023-01-30T08:36:17.996Z,9.15
2023-01-30T08:38:54.499Z,8.80
2023-01-30T08:41:28.232Z,8.75
2023-01-30T08:44:01.086Z,8.68
2023-01-30T08:46:30.249Z,8.68
2023-01-30T08:49:06.096Z,8.32
2023-01-30T08:51:37.189Z,8.15
2023-01-30T08:54:10.817Z,8.07
2023-01-30T08:56:38.853Z,8.05
2023-01-30T08:59:15.227Z,7.78
2023-01-30T09:01:50.538Z,8.45
2023-01-30T09:04:19.245Z,8.57
2023-01-30T09:06:52.286Z,8.23
2023-01-30T09:09:26.186Z,7.88
2023-01-30T09:12:04.276Z,7.82
2023-01-30T09:14:41.883Z,8.48
2023-01-30T09:17:08.598Z,7.22
2023-01-30T09:19:45.415Z,8.30
2023-01-30T09:22:13.089Z,7.85
2023-01-30T09:24:39.924Z,7.78
2023-01-30T09:27:06.657Z,7.28
2023-01-30T09:29:37.927Z,8.80
2023-01-30T09:32:15.251Z,6.97
2023-01-30T09:34:49.934Z,6.20
2023-01-30T09:37:19.753Z,6.55
2023-01-30T09:39:49.120Z,5.80
2023-01-30T09:42:54.555Z,6.88
2023-01-30T09:45:41.043Z,6.30
2023-01-30T09:48:28.764Z,6.25
2023-01-30T09:51:31.980Z,6.75
2023-01-30T09:54:05.607Z,6.25
2023-01-30T09:56:34.094Z,5.90
2023-01-30T09:59:14.404Z,6.28
2023-01-30T10:01:54.474Z,6.13
2023-01-30T10:05:07.145Z,6.45
2023-01-30T10:07:32.547Z,7.18
2023-01-30T10:10:40.134Z,7.70
2023-01-30T10:13:38.571Z,7.28
2023-01-30T10:16:26.979Z,6.28
2023-01-30T10:19:06.741Z,6.00
2023-01-30T10:22:19.101Z,6.47
2023-01-30T10:25:21.626Z,6.30
2023-01-30T10:27:54.745Z,5.95
2023-01-30T10:30:24.684Z,6.35
2023-01-30T10:33:22.319Z,6.85
2023-01-30T10:36:03.353Z,6.45
2023-01-30T10:38:48.498Z,6.65
2023-01-30T10:41:45.059Z,6.03
2023-01-30T10:44:33.121Z,6.35
2023-01-30T10:47:07.256Z,5.93
2023-01-30T10:49:58.930Z,6.10
2023-01-30T10:52:50.166Z,5.93
2023-01-30T10:55:40.128Z,7.25
2023-01-30T10:58:51.573Z,7.75
2023-01-30T11:01:55.884Z,8.23
2023-01-30T11:04:32.105Z,6.55
2023-01-30T11:07:11.693Z,10.90
2023-01-30T11:09:55.074Z,9.88
2023-01-30T11:12:30.261Z,10.10
2023-01-30T11:15:33.957Z,11.93
2023-01-30T11:18:49.736Z,12.02
2023-01-30T11:21:08.556Z,12.95
2023-01-30T11:23:43.358Z,12.70
2023-01-30T11:26:47.079Z,10.45
2023-01-30T11:29:45.957Z,11.48
2023-01-30T11:32:51.061Z,10.48
2023-01-30T11:35:29.973Z,10.02
2023-01-30T11:38:19.343Z,14.15
2023-01-30T11:40:46.148Z,12.38
2023-01-30T11:43:41.064Z,14.05
2023-01-30T11:46:10.038Z,14.13
2023-01-30T11:49:02.339Z,13.55
2023-01-30T11:51:38.285Z,11.45
2023-01-30T11:54:35.853Z,12.02
2023-01-30T11:57:14.844Z,14.60
2023-01-30T11:59:55.828Z,14.68
2023-01-30T12:02:40.402Z,14.98
2023-01-30T12:05:37.673Z,15.00
2023-01-30T12:08:14.716Z,14.73
2023-01-30T12:10:58.834Z,12.68
2023-01-30T12:13:55.597Z,11.82
2023-01-30T12:16:45.115Z,14.00
2023-01-30T12:19:59.607Z,14.98
2023-01-30T12:23:20.156Z,14.43
2023-01-30T12:26:29.556Z,14.10
2023-01-30T12:29:33.824Z,15.02
2023-01-30T12:32:29.747Z,12.40
2023-01-30T12:35:14.740Z,14.40
2023-01-30T12:38:18.886Z,12.55
2023-01-30T12:40:57.680Z,14.27
2023-01-30T12:43:40.337Z,13.07
2023-01-30T12:49:12.156Z,12.60
2023-01-30T12:52:19.339Z,11.65
2023-01-30T12:55:16.510Z,12.65
2023-01-30T12:58:17.402Z,12.45
2023-01-30T13:01:08.059Z,13.85
2023-01-30T13:04:09.789Z,12.70
2023-01-30T13:07:03.656Z,13.45
2023-01-30T13:10:12.021Z,13.45
2023-01-30T13:13:10.197Z,13.82
2023-01-30T13:15:55.538Z,11.82
2023-01-30T13:18:55.512Z,12.55
2023-01-30T13:24:38.895Z,11.85
2023-01-30T13:27:16.018Z,13.60
2023-01-30T13:30:17.706Z,14.07
2023-01-30T13:33:14.120Z,14.32
2023-01-30T13:36:24.273Z,11.13
2023-01-30T13:42:12.714Z,15.68
2023-01-30T13:45:25.542Z,12.18
2023-01-30T13:48:21.034Z,12.13
2023-01-30T13:51:19.389Z,10.90
2023-01-30T13:54:27.531Z,16.15
2023-01-30T13:57:23.373Z,14.50
2023-01-30T14:00:24.811Z,11.60
2023-01-30T14:03:15.422Z,16.60
2023-01-30T14:06:08.080Z,16.65
2023-01-30T14:08:40.800Z,17.88
2023-01-30T14:11:31.423Z,15.93
2023-01-30T14:14:17.439Z,13.73
2023-01-30T14:17:32.041Z,14.15
2023-01-30T14:20:06.947Z,13.90
2023-01-30T14:22:42.843Z,15.70
2023-01-30T14:25:28.100Z,13.82
2023-01-30T14:28:10.232Z,11.35
2023-01-30T14:30:48.317Z,16.27
2023-01-30T14:33:21.337Z,12.35
2023-01-30T14:36:11.586Z,12.18
2023-01-30T14:38:45.586Z,14.13
2023-01-30T14:41:19.765Z,16.35
2023-01-30T14:43:57.200Z,13.80
2023-01-30T14:46:33.067Z,16.83
2023-01-30T14:49:33.086Z,13.80
2023-01-30T14:52:01.035Z,16.63
2023-01-30T14:54:41.749Z,12.65
2023-01-30T14:57:20.124Z,15.90
2023-01-30T15:00:14.191Z,12.90
2023-01-30T15:02:52.000Z,15.48
2023-01-30T15:05:45.985Z,16.90
2023-01-30T15:08:15.339Z,18.30
2023-01-30T15:11:12.065Z,14.02
2023-01-30T15:13:46.017Z,15.52
2023-01-30T15:16:57.488Z,16.92
2023-01-30T15:20:00.135Z,18.10
2023-01-30T15:23:11.554Z,14.02
2023-01-30T15:25:59.673Z,12.90
2023-01-30T15:28:33.289Z,19.13
2023-01-30T15:31:23.275Z,14.70
2023-01-30T15:34:09.961Z,13.40
2023-01-30T15:36:37.422Z,13.57
2023-01-30T15:39:33.497Z,19.02
2023-01-30T15:42:28.515Z,17.67
2023-01-30T15:45:21.448Z,15.25
2023-01-30T15:50:28.835Z,19.73
2023-01-30T15:53:16.183Z,20.58
2023-01-30T15:56:42.371Z,21.33
2023-01-30T15:58:52.864Z,21.00
2023-01-30T16:01:23.497Z,17.20
2023-01-30T16:04:03.543Z,16.00
2023-01-30T16:07:07.399Z,21.17
2023-01-30T16:09:34.166Z,21.02
2023-01-30T16:12:02.006Z,22.88
2023-01-30T16:14:28.649Z,20.98
2023-01-30T16:17:07.903Z,15.05
2023-01-30T16:19:38.601Z,22.02
2023-01-30T16:22:31.682Z,19.60
2023-01-30T16:25:04.816Z,17.90
2023-01-30T16:27:46.256Z,22.25
2023-01-30T16:30:19.917Z,23.05
2023-01-30T16:32:57.631Z,24.35
2023-01-30T16:35:34.553Z,24.70
2023-01-30T16:38:26.092Z,24.00
2023-01-30T16:40:54.599Z,21.77
2023-01-30T16:43:32.411Z,22.38
2023-01-30T16:46:41.066Z,19.45
2023-01-30T16:49:26.454Z,24.60
2023-01-30T16:52:25.819Z,24.25
2023-01-30T16:54:54.223Z,24.55
2023-01-30T16:57:36.487Z,24.38
2023-01-30T17:03:31.467Z,23.55
2023-01-30T17:06:25.686Z,24.20
2023-01-30T17:08:55.893Z,24.63
2023-01-30T17:11:42.995Z,25.80
2023-01-30T17:14:41.122Z,31.58
2023-01-30T17:17:13.445Z,28.33
2023-01-30T17:19:55.695Z,27.13
2023-01-30T17:22:32.592Z,27.85
2023-01-30T17:25:06.335Z,26.63
2023-01-30T17:27:36.157Z,26.88
2023-01-30T17:30:20.006Z,26.52
2023-01-30T17:32:56.758Z,26.40
2023-01-30T17:35:30.970Z,25.58
2023-01-30T17:38:15.530Z,27.25
2023-01-30T17:40:45.868Z,26.88
2023-01-30T17:43:22.010Z,27.30
2023-01-30T17:45:52.452Z,26.58
2023-01-30T17:48:19.881Z,27.48
2023-01-30T17:50:46.888Z,27.75
2023-01-30T17:53:20.442Z,27.45
2023-01-30T17:55:51.833Z,27.63
2023-01-30T17:58:19.995Z,26.52
2023-01-30T18:00:57.174Z,25.88
2023-01-30T18:03:48.858Z,29.40
2023-01-30T18:06:19.076Z,29.08
2023-01-30T18:08:46.118Z,28.58
2023-01-30T18:11:15.054Z,30.00
2023-01-30T18:13:43.299Z,27.88
2023-01-30T18:16:36.957Z,28.15
2023-01-30T18:19:06.918Z,27.45
2023-01-30T18:21:34.647Z,26.95
2023-01-30T18:24:02.419Z,28.73
2023-01-30T18:26:33.513Z,25.42
2023-01-30T18:29:00.457Z,26.95
2023-01-30T18:31:32.121Z,27.02
2023-01-30T18:33:59.073Z,25.40
2023-01-30T18:36:28.331Z,25.48
2023-01-30T18:38:55.414Z,22.58
2023-01-30T18:41:24.394Z,25.10
2023-01-30T18:44:04.756Z,23.52
2023-01-30T18:46:40.949Z,23.27
2023-01-30T18:49:11.157Z,24.45
2023-01-30T18:51:43.160Z,24.60
2023-01-30T18:54:11.488Z,23.73
2023-01-30T18:56:51.065Z,24.10
2023-01-30T18:59:21.215Z,24.77
2023-01-30T19:01:48.680Z,25.77
2023-01-30T19:04:22.914Z,24.83
2023-01-30T19:07:04.303Z,25.08
2023-01-30T19:09:45.267Z,25.38
2023-01-30T19:12:36.178Z,25.42
2023-01-30T19:15:13.493Z,26.23
2023-01-30T19:17:47.640Z,25.33
2023-01-30T19:23:05.348Z,26.02
2023-01-30T19:25:42.536Z,25.90
2023-01-30T19:28:18.189Z,27.73
2023-01-30T19:30:52.726Z,26.83
2023-01-30T19:33:32.997Z,26.17
2023-01-30T19:36:23.355Z,26.02
2023-01-30T19:38:59.982Z,25.92
2023-01-30T19:41:42.068Z,25.67
2023-01-30T19:44:16.458Z,27.38
2023-01-30T19:46:49.634Z,26.23
2023-01-30T19:49:24.593Z,25.75
2023-01-30T19:52:01.473Z,25.60
2023-01-30T19:54:35.041Z,26.10
2023-01-30T19:57:15.000Z,26.42
2023-01-30T19:59:50.995Z,26.88
2023-01-30T20:02:17.967Z,27.42
2023-01-30T20:04:44.813Z,27.15
2023-01-30T20:07:22.081Z,26.73
2023-01-30T20:09:49.267Z,28.27
2023-01-30T20:12:33.436Z,26.98
2023-01-30T20:15:05.842Z,28.77
2023-01-30T20:17:44.229Z,29.00
2023-01-30T20:20:17.415Z,27.25
2023-01-30T20:22:55.603Z,27.45
2023-01-30T20:25:31.763Z,27.33
2023-01-30T20:28:06.921Z,28.33
2023-01-30T20:30:43.809Z,26.95
2023-01-30T20:33:22.535Z,27.73
2023-01-30T20:38:43.451Z,27.70
2023-01-30T20:41:26.501Z,28.15
2023-01-30T20:44:03.638Z,26.13
2023-01-30T20:46:51.078Z,27.85
2023-01-30T20:49:28.388Z,27.83
2023-01-30T20:52:13.238Z,29.05
2023-01-30T20:54:51.064Z,29.55
2023-01-30T20:57:39.452Z,28.60
2023-01-30T21:00:12.575Z,26.55
2023-01-30T21:02:54.417Z,26.67
2023-01-30T21:05:30.290Z,27.80
2023-01-30T21:08:12.252Z,27.70
2023-01-30T21:10:50.252Z,27.90
2023-01-30T21:13:31.898Z,29.17
2023-01-30T21:16:18.174Z,28.23
2023-01-30T21:19:00.047Z,27.95
2023-01-30T21:21:45.734Z,29.10
2023-01-30T21:24:36.810Z,27.65
2023-01-30T21:27:18.846Z,28.05
2023-01-30T21:30:11.852Z,29.95
2023-01-30T21:32:57.725Z,29.13
2023-01-30T21:35:55.500Z,27.98
2023-01-30T21:38:55.372Z,29.27
2023-01-30T21:42:08.607Z,29.80
2023-01-30T21:44:48.486Z,29.23
2023-01-30T21:47:22.370Z,27.42
2023-01-30T21:50:04.704Z,28.10
2023-01-30T21:52:33.605Z,29.52
2023-01-30T21:55:19.475Z,27.95
2023-01-30T21:57:49.419Z,26.90
2023-01-30T22:00:17.567Z,28.45
2023-01-30T22:03:00.344Z,28.50
2023-01-30T22:05:30.839Z,27.67
2023-01-30T22:08:07.518Z,27.58
2023-01-30T22:10:42.297Z,26.85
2023-01-30T22:13:23.976Z,22.83
2023-01-30T22:16:00.235Z,25.25
2023-01-30T22:18:51.087Z,25.58
2023-01-30T22:21:33.438Z,22.92
2023-01-30T22:24:14.564Z,25.23
2023-01-30T22:26:59.189Z,22.45
2023-01-30T22:29:40.718Z,23.75
2023-01-30T22:32:14.288Z,22.58
2023-01-30T22:35:18.176Z,20.33
2023-01-30T22:38:11.515Z,23.38
2023-01-30T22:40:38.828Z,24.70
2023-01-30T22:43:18.665Z,25.50
2023-01-30T22:46:05.682Z,26.63
2023-01-30T22:48:38.611Z,25.63
2023-01-30T22:51:41.648Z,23.23
2023-01-30T22:54:44.382Z,22.95
2023-01-30T22:57:36.920Z,26.33
2023-01-30T23:03:12.704Z,22.40
2023-01-30T23:05:52.715Z,26.73
2023-01-30T23:08:47.382Z,28.70
2023-01-30T23:11:40.369Z,25.58
2023-01-30T23:14:18.913Z,27.95
2023-01-30T23:17:09.731Z,28.52
2023-01-30T23:19:57.592Z,29.05
2023-01-30T23:22:54.515Z,29.45
2023-01-30T23:25:36.624Z,28.70
2023-01-30T23:28:31.687Z,27.88
2023-01-30T23:31:42.734Z,29.25
2023-01-30T23:34:41.236Z,27.63
2023-01-30T23:37:21.326Z,28.52
2023-01-30T23:40:06.461Z,29.70
2023-01-30T23:42:50.185Z,29.13
2023-01-30T23:45:30.144Z,29.52
2023-01-30T23:48:18.412Z,29.33
2023-01-30T23:51:05.388Z,29.10
2023-01-30T23:53:53.336Z,28.02
2023-01-30T23:56:55.005Z,29.95
